Hauptseite
METAR-TAF:

METAR-TAF

Flughäfen :

Bagdad, Irak

Flughafen Bagdad

Breite: 33-15-45N, Länge: 44-14-04E, Höhe: 35 m

Beobachtung

Neuester Wetterbericht von vor 20 Minuten, um 03:00 UTC
Wind 2 kt aus unterschiedlichen Richtungen
Temperatur 21°C
Luftfeuchtigkeit 38%
Luftdruck 1010 hPa
Sichtweite 10 km oder mehr
keine Wolken unter 1500 m und keine Kumulonimbus oder Gewitterwolken

METAR: ORBI 300300Z VRB02KT CAVOK 21/06 Q1010 NOSIG

Zeit: 06:20 (03:20 UTC)

Prognose

Neuester Wetterbericht von vor 4 Stunden und 20 Minuten, um 23:00 UTC
Gültige Prognose vom 30 um 00 UTC bis 30 um 24 UTC
Wind 10 kt aus West/Nordwest
Sichtweite 10 km oder mehr
keine Wolken unter 1500 m und keine Kumulonimbus oder Gewitterwolken
Übergehend zu
vom 30 um 06 UTC bis 30 um 08 UTC
Wind 10 kt aus Ost/Südost
Sichtweite: 8000 m

TAF: ORBI 292300Z 3000/3024 30010KT CAVOK BECMG 3006/3008 12010KT 8000 NSC

Wetterbeobachtungen und Prognosen von mehr als 4000 Flughäfen (METAR und TAF Bericht).

Die verfügbaren Stationen werden durch gelbe und rote Markierungen auf der Karte dargestellt.

Führen Sie die Maus auf sie, um den Namen der Station zu sehen.

Darauf klicken, um die Beobachtung von Wetterbeobachtungen und Prognosen zu sehen.

Um die Karte zu ändern : klicken Sie auf den grünen Tasten mit einem schwarzen Kreuz Zum Vergrößern, auf den grünen Button mit einem Gedankenstrich zu verkleinern, oder auf die grünen Pfeile für benachbarte Karten.


METAR-TAF: